sensor_id;sensor_type;location;lat;lon;timestamp;temperature;humidity
36322;DHT22;23564;48.290;11.460;2023-06-22T00:00:50;20.00;1.00
36322;DHT22;23564;48.290;11.460;2023-06-22T00:03:19;20.00;1.00
36322;DHT22;23564;48.290;11.460;2023-06-22T00:05:46;20.00;1.00
36322;DHT22;23564;48.290;11.460;2023-06-22T00:08:12;20.00;1.00
36322;DHT22;23564;48.290;11.460;2023-06-22T00:10:38;20.00;99.90
36322;DHT22;23564;48.290;11.460;2023-06-22T00:13:04;19.90;1.00
36322;DHT22;23564;48.290;11.460;2023-06-22T00:15:30;19.90;1.00
36322;DHT22;23564;48.290;11.460;2023-06-22T00:17:55;19.90;1.00
36322;DHT22;23564;48.290;11.460;2023-06-22T00:20:23;19.90;1.00
36322;DHT22;23564;48.290;11.460;2023-06-22T00:22:48;19.90;1.00
36322;DHT22;23564;48.290;11.460;2023-06-22T00:25:14;19.90;1.00
36322;DHT22;23564;48.290;11.460;2023-06-22T00:27:39;19.90;99.90
36322;DHT22;23564;48.290;11.460;2023-06-22T00:30:06;19.90;99.90
36322;DHT22;23564;48.290;11.460;2023-06-22T00:32:31;19.80;99.90
36322;DHT22;23564;48.290;11.460;2023-06-22T00:34:57;19.80;1.00
36322;DHT22;23564;48.290;11.460;2023-06-22T00:37:23;19.80;99.90
36322;DHT22;23564;48.290;11.460;2023-06-22T00:39:51;19.70;1.00
36322;DHT22;23564;48.290;11.460;2023-06-22T00:42:17;19.70;1.00
36322;DHT22;23564;48.290;11.460;2023-06-22T00:44:42;19.70;1.00
36322;DHT22;23564;48.290;11.460;2023-06-22T00:47:09;19.70;1.00
36322;DHT22;23564;48.290;11.460;2023-06-22T00:49:34;19.70;1.00
36322;DHT22;23564;48.290;11.460;2023-06-22T00:52:00;19.60;1.00
36322;DHT22;23564;48.290;11.460;2023-06-22T00:54:26;19.60;1.00
36322;DHT22;23564;48.290;11.460;2023-06-22T00:56:54;19.60;1.00
36322;DHT22;23564;48.290;11.460;2023-06-22T00:59:21;19.60;1.00
36322;DHT22;23564;48.290;11.460;2023-06-22T01:01:47;19.60;1.00
36322;DHT22;23564;48.290;11.460;2023-06-22T01:04:13;19.60;1.00
36322;DHT22;23564;48.290;11.460;2023-06-22T01:06:47;19.50;1.00
36322;DHT22;23564;48.290;11.460;2023-06-22T01:09:21;19.50;1.00
36322;DHT22;23564;48.290;11.460;2023-06-22T01:12:00;19.50;1.00
36322;DHT22;23564;48.290;11.460;2023-06-22T01:14:41;19.50;1.00
36322;DHT22;23564;48.290;11.460;2023-06-22T01:17:08;19.40;1.00
36322;DHT22;23564;48.290;11.460;2023-06-22T01:19:55;19.40;1.00
36322;DHT22;23564;48.290;11.460;2023-06-22T01:22:28;19.40;1.00
36322;DHT22;23564;48.290;11.460;2023-06-22T01:25:10;19.40;1.00
36322;DHT22;23564;48.290;11.460;2023-06-22T01:27:53;19.40;1.00
36322;DHT22;23564;48.290;11.460;2023-06-22T01:30:22;19.40;1.00
36322;DHT22;23564;48.290;11.460;2023-06-22T01:32:51;19.40;1.00
36322;DHT22;23564;48.290;11.460;2023-06-22T01:35:18;19.40;1.00
36322;DHT22;23564;48.290;11.460;2023-06-22T01:37:44;19.40;1.00
36322;DHT22;23564;48.290;11.460;2023-06-22T01:40:11;19.40;1.00
36322;DHT22;23564;48.290;11.460;2023-06-22T01:42:38;19.30;1.00
36322;DHT22;23564;48.290;11.460;2023-06-22T01:45:05;19.30;1.00
36322;DHT22;23564;48.290;11.460;2023-06-22T01:47:30;19.30;1.00
36322;DHT22;23564;48.290;11.460;2023-06-22T01:49:56;19.30;1.00
36322;DHT22;23564;48.290;11.460;2023-06-22T01:52:22;19.30;1.00
36322;DHT22;23564;48.290;11.460;2023-06-22T01:54:48;19.30;1.00
36322;DHT22;23564;48.290;11.460;2023-06-22T01:57:13;19.40;1.00
36322;DHT22;23564;48.290;11.460;2023-06-22T01:59:50;19.30;1.00
36322;DHT22;23564;48.290;11.460;2023-06-22T02:02:20;19.30;1.00
36322;DHT22;23564;48.290;11.460;2023-06-22T02:04:56;19.30;1.00
36322;DHT22;23564;48.290;11.460;2023-06-22T02:07:23;19.20;1.00
36322;DHT22;23564;48.290;11.460;2023-06-22T02:09:54;19.20;1.00
36322;DHT22;23564;48.290;11.460;2023-06-22T02:12:23;19.20;1.00
36322;DHT22;23564;48.290;11.460;2023-06-22T02:14:51;19.20;1.00
36322;DHT22;23564;48.290;11.460;2023-06-22T02:17:17;19.20;1.00
36322;DHT22;23564;48.290;11.460;2023-06-22T02:19:44;19.20;1.00
36322;DHT22;23564;48.290;11.460;2023-06-22T02:22:09;19.10;1.00
36322;DHT22;23564;48.290;11.460;2023-06-22T02:24:35;19.10;1.00
36322;DHT22;23564;48.290;11.460;2023-06-22T02:27:01;19.00;1.00
36322;DHT22;23564;48.290;11.460;2023-06-22T02:29:28;19.00;1.00
36322;DHT22;23564;48.290;11.460;2023-06-22T02:31:54;19.00;1.00
36322;DHT22;23564;48.290;11.460;2023-06-22T02:34:20;18.90;1.00
36322;DHT22;23564;48.290;11.460;2023-06-22T02:36:47;18.90;1.00
36322;DHT22;23564;48.290;11.460;2023-06-22T02:39:24;18.90;1.00
36322;DHT22;23564;48.290;11.460;2023-06-22T02:41:50;18.90;1.00
36322;DHT22;23564;48.290;11.460;2023-06-22T02:44:16;18.90;1.00
36322;DHT22;23564;48.290;11.460;2023-06-22T02:46:42;18.90;1.00
36322;DHT22;23564;48.290;11.460;2023-06-22T02:49:08;18.90;1.00
36322;DHT22;23564;48.290;11.460;2023-06-22T02:51:34;18.90;1.00
36322;DHT22;23564;48.290;11.460;2023-06-22T02:54:00;18.90;1.00
36322;DHT22;23564;48.290;11.460;2023-06-22T02:56:26;18.90;1.00
36322;DHT22;23564;48.290;11.460;2023-06-22T02:58:51;18.90;1.00
36322;DHT22;23564;48.290;11.460;2023-06-22T03:01:17;18.90;1.00
36322;DHT22;23564;48.290;11.460;2023-06-22T03:03:49;18.90;1.00
36322;DHT22;23564;48.290;11.460;2023-06-22T03:06:15;18.90;1.00
36322;DHT22;23564;48.290;11.460;2023-06-22T03:08:41;19.00;1.00
36322;DHT22;23564;48.290;11.460;2023-06-22T03:11:07;19.00;1.00
36322;DHT22;23564;48.290;11.460;2023-06-22T03:13:33;19.00;1.00
36322;DHT22;23564;48.290;11.460;2023-06-22T03:15:59;19.00;1.00
36322;DHT22;23564;48.290;11.460;2023-06-22T03:18:24;18.90;1.00
36322;DHT22;23564;48.290;11.460;2023-06-22T03:20:50;18.90;1.00
36322;DHT22;23564;48.290;11.460;2023-06-22T03:23:16;18.90;1.00
36322;DHT22;23564;48.290;11.460;2023-06-22T03:25:42;18.90;1.00
36322;DHT22;23564;48.290;11.460;2023-06-22T03:28:10;18.90;1.00
36322;DHT22;23564;48.290;11.460;2023-06-22T03:30:35;18.90;1.00
36322;DHT22;23564;48.290;11.460;2023-06-22T03:33:01;18.80;1.00
36322;DHT22;23564;48.290;11.460;2023-06-22T03:35:26;18.80;1.00
36322;DHT22;23564;48.290;11.460;2023-06-22T03:37:52;18.80;1.00
36322;DHT22;23564;48.290;11.460;2023-06-22T03:40:18;18.80;1.00
36322;DHT22;23564;48.290;11.460;2023-06-22T03:42:43;18.80;1.00
36322;DHT22;23564;48.290;11.460;2023-06-22T03:45:09;18.80;1.00
36322;DHT22;23564;48.290;11.460;2023-06-22T03:47:35;18.90;1.00
36322;DHT22;23564;48.290;11.460;2023-06-22T03:50:01;18.90;1.00
36322;DHT22;23564;48.290;11.460;2023-06-22T03:52:29;18.80;1.00
36322;DHT22;23564;48.290;11.460;2023-06-22T03:54:55;18.80;1.00
36322;DHT22;23564;48.290;11.460;2023-06-22T03:57:20;18.90;1.00
36322;DHT22;23564;48.290;11.460;2023-06-22T03:59:46;18.90;1.00
36322;DHT22;23564;48.290;11.460;2023-06-22T04:02:11;18.90;1.00
36322;DHT22;23564;48.290;11.460;2023-06-22T04:04:37;18.90;1.00
36322;DHT22;23564;48.290;11.460;2023-06-22T04:07:04;18.90;1.00
36322;DHT22;23564;48.290;11.460;2023-06-22T04:09:30;19.00;1.00
36322;DHT22;23564;48.290;11.460;2023-06-22T04:11:55;19.00;1.00
36322;DHT22;23564;48.290;11.460;2023-06-22T04:14:21;19.00;1.00
36322;DHT22;23564;48.290;11.460;2023-06-22T04:16:47;19.10;1.00
36322;DHT22;23564;48.290;11.460;2023-06-22T04:19:13;19.10;1.00
36322;DHT22;23564;48.290;11.460;2023-06-22T04:21:43;19.20;1.00
36322;DHT22;23564;48.290;11.460;2023-06-22T04:24:10;19.20;1.00
36322;DHT22;23564;48.290;11.460;2023-06-22T04:26:35;19.30;1.00
36322;DHT22;23564;48.290;11.460;2023-06-22T04:29:05;19.40;1.00
36322;DHT22;23564;48.290;11.460;2023-06-22T04:31:31;19.40;1.00
36322;DHT22;23564;48.290;11.460;2023-06-22T04:33:58;19.60;1.00
36322;DHT22;23564;48.290;11.460;2023-06-22T04:36:31;19.60;1.00
36322;DHT22;23564;48.290;11.460;2023-06-22T04:39:07;19.70;1.00
36322;DHT22;23564;48.290;11.460;2023-06-22T04:41:36;19.70;1.00
36322;DHT22;23564;48.290;11.460;2023-06-22T04:44:17;19.80;1.00
36322;DHT22;23564;48.290;11.460;2023-06-22T04:46:57;19.80;1.00
36322;DHT22;23564;48.290;11.460;2023-06-22T04:49:29;19.90;1.00
36322;DHT22;23564;48.290;11.460;2023-06-22T04:51:59;20.00;1.00
36322;DHT22;23564;48.290;11.460;2023-06-22T04:54:25;20.00;1.00
36322;DHT22;23564;48.290;11.460;2023-06-22T04:56:51;20.10;1.00
36322;DHT22;23564;48.290;11.460;2023-06-22T04:59:26;20.10;1.00
36322;DHT22;23564;48.290;11.460;2023-06-22T05:01:57;20.20;1.00
36322;DHT22;23564;48.290;11.460;2023-06-22T05:04:23;20.20;1.00
36322;DHT22;23564;48.290;11.460;2023-06-22T05:06:52;20.30;1.00
36322;DHT22;23564;48.290;11.460;2023-06-22T05:09:18;20.30;1.00
36322;DHT22;23564;48.290;11.460;2023-06-22T05:11:44;20.40;1.00
36322;DHT22;23564;48.290;11.460;2023-06-22T05:14:10;20.40;1.00
36322;DHT22;23564;48.290;11.460;2023-06-22T05:16:36;20.50;1.00
36322;DHT22;23564;48.290;11.460;2023-06-22T05:19:02;20.60;1.00
36322;DHT22;23564;48.290;11.460;2023-06-22T05:21:29;20.70;99.90
36322;DHT22;23564;48.290;11.460;2023-06-22T05:23:55;20.80;99.90
36322;DHT22;23564;48.290;11.460;2023-06-22T05:26:29;20.90;99.90
36322;DHT22;23564;48.290;11.460;2023-06-22T05:28:55;21.00;99.90
36322;DHT22;23564;48.290;11.460;2023-06-22T05:31:21;21.00;99.90
36322;DHT22;23564;48.290;11.460;2023-06-22T05:33:47;21.10;99.90
36322;DHT22;23564;48.290;11.460;2023-06-22T05:36:13;21.20;99.90
36322;DHT22;23564;48.290;11.460;2023-06-22T05:38:40;21.40;99.90
36322;DHT22;23564;48.290;11.460;2023-06-22T05:41:06;21.40;99.90
36322;DHT22;23564;48.290;11.460;2023-06-22T05:43:32;21.50;99.90
36322;DHT22;23564;48.290;11.460;2023-06-22T05:46:00;21.60;99.90
36322;DHT22;23564;48.290;11.460;2023-06-22T05:48:26;21.70;99.90
36322;DHT22;23564;48.290;11.460;2023-06-22T05:50:52;21.80;99.90
36322;DHT22;23564;48.290;11.460;2023-06-22T05:53:18;21.90;99.90
36322;DHT22;23564;48.290;11.460;2023-06-22T05:55:44;22.00;99.90
36322;DHT22;23564;48.290;11.460;2023-06-22T05:58:09;22.10;99.90
36322;DHT22;23564;48.290;11.460;2023-06-22T06:00:35;22.20;32.20
36322;DHT22;23564;48.290;11.460;2023-06-22T06:03:01;22.30;1.00
36322;DHT22;23564;48.290;11.460;2023-06-22T06:05:30;22.40;6.80
36322;DHT22;23564;48.290;11.460;2023-06-22T06:07:56;22.40;1.00
36322;DHT22;23564;48.290;11.460;2023-06-22T06:10:22;22.60;1.00
36322;DHT22;23564;48.290;11.460;2023-06-22T06:12:47;22.50;99.90
36322;DHT22;23564;48.290;11.460;2023-06-22T06:15:13;22.60;99.90
36322;DHT22;23564;48.290;11.460;2023-06-22T06:17:46;22.60;99.90
36322;DHT22;23564;48.290;11.460;2023-06-22T06:20:12;22.60;99.90
36322;DHT22;23564;48.290;11.460;2023-06-22T06:22:37;22.70;99.90
36322;DHT22;23564;48.290;11.460;2023-06-22T06:25:03;22.70;99.90
36322;DHT22;23564;48.290;11.460;2023-06-22T06:27:30;22.80;99.90
36322;DHT22;23564;48.290;11.460;2023-06-22T06:29:55;22.80;87.90
36322;DHT22;23564;48.290;11.460;2023-06-22T06:32:21;22.90;1.00
36322;DHT22;23564;48.290;11.460;2023-06-22T06:34:46;22.90;1.00
36322;DHT22;23564;48.290;11.460;2023-06-22T06:37:12;23.00;99.90
36322;DHT22;23564;48.290;11.460;2023-06-22T06:39:38;23.00;99.90
36322;DHT22;23564;48.290;11.460;2023-06-22T06:42:04;23.00;99.90
36322;DHT22;23564;48.290;11.460;2023-06-22T06:44:30;23.10;1.00
36322;DHT22;23564;48.290;11.460;2023-06-22T06:46:55;23.10;99.90
36322;DHT22;23564;48.290;11.460;2023-06-22T06:49:21;23.20;1.00
36322;DHT22;23564;48.290;11.460;2023-06-22T06:51:46;23.30;99.90
36322;DHT22;23564;48.290;11.460;2023-06-22T06:54:12;23.30;1.00
36322;DHT22;23564;48.290;11.460;2023-06-22T06:56:38;23.20;99.90
36322;DHT22;23564;48.290;11.460;2023-06-22T06:59:03;23.20;34.70
36322;DHT22;23564;48.290;11.460;2023-06-22T07:01:29;23.20;1.00
36322;DHT22;23564;48.290;11.460;2023-06-22T07:03:59;23.30;53.50
36322;DHT22;23564;48.290;11.460;2023-06-22T07:06:24;23.30;1.00
36322;DHT22;23564;48.290;11.460;2023-06-22T07:08:55;23.40;99.90
36322;DHT22;23564;48.290;11.460;2023-06-22T07:11:21;23.40;99.90
36322;DHT22;23564;48.290;11.460;2023-06-22T07:13:46;23.40;99.90
36322;DHT22;23564;48.290;11.460;2023-06-22T07:16:12;23.40;99.90
36322;DHT22;23564;48.290;11.460;2023-06-22T07:18:39;23.40;99.90
36322;DHT22;23564;48.290;11.460;2023-06-22T07:21:05;23.40;99.90
36322;DHT22;23564;48.290;11.460;2023-06-22T07:23:32;23.50;99.90
36322;DHT22;23564;48.290;11.460;2023-06-22T07:25:58;23.50;99.90
36322;DHT22;23564;48.290;11.460;2023-06-22T07:28:27;23.60;98.50
36322;DHT22;23564;48.290;11.460;2023-06-22T07:30:53;23.60;72.10
36322;DHT22;23564;48.290;11.460;2023-06-22T07:33:18;23.70;1.00
36322;DHT22;23564;48.290;11.460;2023-06-22T07:35:44;23.70;99.90
36322;DHT22;23564;48.290;11.460;2023-06-22T07:38:10;23.70;1.00
36322;DHT22;23564;48.290;11.460;2023-06-22T07:40:36;23.80;1.00
36322;DHT22;23564;48.290;11.460;2023-06-22T07:43:02;23.80;1.00
36322;DHT22;23564;48.290;11.460;2023-06-22T07:45:29;23.80;1.00
36322;DHT22;23564;48.290;11.460;2023-06-22T07:47:54;23.90;1.00
36322;DHT22;23564;48.290;11.460;2023-06-22T07:50:20;23.90;1.00
36322;DHT22;23564;48.290;11.460;2023-06-22T07:52:46;24.00;99.90
36322;DHT22;23564;48.290;11.460;2023-06-22T07:55:13;24.00;99.90
36322;DHT22;23564;48.290;11.460;2023-06-22T07:57:39;24.00;99.90
36322;DHT22;23564;48.290;11.460;2023-06-22T08:00:05;24.10;22.90
36322;DHT22;23564;48.290;11.460;2023-06-22T08:02:42;24.20;1.00
36322;DHT22;23564;48.290;11.460;2023-06-22T08:05:09;24.20;99.90
36322;DHT22;23564;48.290;11.460;2023-06-22T08:07:35;24.30;99.90
36322;DHT22;23564;48.290;11.460;2023-06-22T08:10:03;24.30;53.50
36322;DHT22;23564;48.290;11.460;2023-06-22T08:12:29;24.30;75.30
36322;DHT22;23564;48.290;11.460;2023-06-22T08:14:54;24.30;1.00
36322;DHT22;23564;48.290;11.460;2023-06-22T08:17:20;24.30;1.00
36322;DHT22;23564;48.290;11.460;2023-06-22T08:19:45;24.40;1.00
36322;DHT22;23564;48.290;11.460;2023-06-22T08:22:11;24.50;1.00
36322;DHT22;23564;48.290;11.460;2023-06-22T08:24:36;24.60;1.00
36322;DHT22;23564;48.290;11.460;2023-06-22T08:27:02;24.60;1.00
36322;DHT22;23564;48.290;11.460;2023-06-22T08:29:28;24.70;1.00
36322;DHT22;23564;48.290;11.460;2023-06-22T08:31:53;24.80;1.00
36322;DHT22;23564;48.290;11.460;2023-06-22T08:34:19;24.80;99.90
36322;DHT22;23564;48.290;11.460;2023-06-22T08:36:50;24.80;1.00
36322;DHT22;23564;48.290;11.460;2023-06-22T08:39:19;24.90;99.90
36322;DHT22;23564;48.290;11.460;2023-06-22T08:41:45;24.90;99.90
36322;DHT22;23564;48.290;11.460;2023-06-22T08:44:11;25.00;99.90
36322;DHT22;23564;48.290;11.460;2023-06-22T08:46:37;25.10;99.90
36322;DHT22;23564;48.290;11.460;2023-06-22T08:49:04;25.20;99.90
36322;DHT22;23564;48.290;11.460;2023-06-22T08:51:29;25.30;99.90
36322;DHT22;23564;48.290;11.460;2023-06-22T08:53:55;25.40;99.90
36322;DHT22;23564;48.290;11.460;2023-06-22T08:56:20;25.50;99.90
36322;DHT22;23564;48.290;11.460;2023-06-22T08:58:46;25.50;99.90
36322;DHT22;23564;48.290;11.460;2023-06-22T09:01:12;25.50;99.90
36322;DHT22;23564;48.290;11.460;2023-06-22T09:03:37;25.60;99.90
36322;DHT22;23564;48.290;11.460;2023-06-22T09:06:03;25.70;99.90
36322;DHT22;23564;48.290;11.460;2023-06-22T09:08:29;25.80;99.90
36322;DHT22;23564;48.290;11.460;2023-06-22T09:10:54;25.80;99.90
36322;DHT22;23564;48.290;11.460;2023-06-22T09:13:20;25.80;89.80
36322;DHT22;23564;48.290;11.460;2023-06-22T09:15:46;25.80;76.80
36322;DHT22;23564;48.290;11.460;2023-06-22T09:18:12;26.00;99.90
36322;DHT22;23564;48.290;11.460;2023-06-22T09:20:38;26.10;21.30
36322;DHT22;23564;48.290;11.460;2023-06-22T09:23:04;26.10;29.00
36322;DHT22;23564;48.290;11.460;2023-06-22T09:25:29;26.20;1.00
36322;DHT22;23564;48.290;11.460;2023-06-22T09:27:55;26.20;1.00
36322;DHT22;23564;48.290;11.460;2023-06-22T09:30:22;26.30;1.00
36322;DHT22;23564;48.290;11.460;2023-06-22T09:32:48;26.30;1.00
36322;DHT22;23564;48.290;11.460;2023-06-22T09:35:13;26.30;1.00
36322;DHT22;23564;48.290;11.460;2023-06-22T09:37:40;26.30;1.00
36322;DHT22;23564;48.290;11.460;2023-06-22T09:40:07;26.40;1.00
36322;DHT22;23564;48.290;11.460;2023-06-22T09:42:38;26.40;1.00
36322;DHT22;23564;48.290;11.460;2023-06-22T09:45:04;26.50;1.00
36322;DHT22;23564;48.290;11.460;2023-06-22T09:47:30;26.60;1.00
36322;DHT22;23564;48.290;11.460;2023-06-22T09:49:56;26.70;1.00
36322;DHT22;23564;48.290;11.460;2023-06-22T09:52:22;26.70;1.00
36322;DHT22;23564;48.290;11.460;2023-06-22T09:54:47;26.70;1.00
36322;DHT22;23564;48.290;11.460;2023-06-22T09:57:13;26.80;1.00
36322;DHT22;23564;48.290;11.460;2023-06-22T09:59:39;26.80;1.00
36322;DHT22;23564;48.290;11.460;2023-06-22T10:02:06;26.90;1.00
36322;DHT22;23564;48.290;11.460;2023-06-22T10:04:33;27.00;1.00
36322;DHT22;23564;48.290;11.460;2023-06-22T10:06:59;27.10;99.90
36322;DHT22;23564;48.290;11.460;2023-06-22T10:09:25;27.10;99.90
36322;DHT22;23564;48.290;11.460;2023-06-22T10:11:50;27.10;99.90
36322;DHT22;23564;48.290;11.460;2023-06-22T10:14:16;27.20;99.90
36322;DHT22;23564;48.290;11.460;2023-06-22T10:16:42;27.40;99.90
36322;DHT22;23564;48.290;11.460;2023-06-22T10:19:08;27.40;99.90
36322;DHT22;23564;48.290;11.460;2023-06-22T10:21:33;27.50;99.90
36322;DHT22;23564;48.290;11.460;2023-06-22T10:24:00;27.40;99.90
36322;DHT22;23564;48.290;11.460;2023-06-22T10:26:34;27.50;99.90
36322;DHT22;23564;48.290;11.460;2023-06-22T10:29:01;27.50;99.90
36322;DHT22;23564;48.290;11.460;2023-06-22T10:31:27;27.50;99.90
36322;DHT22;23564;48.290;11.460;2023-06-22T10:33:54;27.60;99.90
36322;DHT22;23564;48.290;11.460;2023-06-22T10:36:20;27.60;99.90
36322;DHT22;23564;48.290;11.460;2023-06-22T10:38:46;27.70;99.90
36322;DHT22;23564;48.290;11.460;2023-06-22T10:41:13;27.70;99.90
36322;DHT22;23564;48.290;11.460;2023-06-22T10:43:39;27.80;99.90
36322;DHT22;23564;48.290;11.460;2023-06-22T10:46:04;27.70;99.90
36322;DHT22;23564;48.290;11.460;2023-06-22T10:48:30;27.80;99.90
36322;DHT22;23564;48.290;11.460;2023-06-22T10:50:55;27.90;99.90
36322;DHT22;23564;48.290;11.460;2023-06-22T10:53:21;27.90;99.90
36322;DHT22;23564;48.290;11.460;2023-06-22T10:55:47;28.00;99.90
36322;DHT22;23564;48.290;11.460;2023-06-22T10:58:13;28.20;99.90
36322;DHT22;23564;48.290;11.460;2023-06-22T11:00:38;28.40;99.90
36322;DHT22;23564;48.290;11.460;2023-06-22T11:03:04;28.50;99.90
36322;DHT22;23564;48.290;11.460;2023-06-22T11:05:29;28.60;99.90
36322;DHT22;23564;48.290;11.460;2023-06-22T11:07:55;28.80;99.90
36322;DHT22;23564;48.290;11.460;2023-06-22T11:10:20;28.80;99.90
36322;DHT22;23564;48.290;11.460;2023-06-22T11:12:46;28.90;99.90
36322;DHT22;23564;48.290;11.460;2023-06-22T11:15:12;28.80;99.90
36322;DHT22;23564;48.290;11.460;2023-06-22T11:17:37;28.90;99.90
36322;DHT22;23564;48.290;11.460;2023-06-22T11:20:03;29.00;80.90
36322;DHT22;23564;48.290;11.460;2023-06-22T11:22:40;29.10;83.50
36322;DHT22;23564;48.290;11.460;2023-06-22T11:25:06;29.10;52.50
36322;DHT22;23564;48.290;11.460;2023-06-22T11:27:32;29.00;1.00
36322;DHT22;23564;48.290;11.460;2023-06-22T11:29:57;29.00;1.00
36322;DHT22;23564;48.290;11.460;2023-06-22T11:32:23;29.00;1.00
36322;DHT22;23564;48.290;11.460;2023-06-22T11:34:49;29.00;1.00
36322;DHT22;23564;48.290;11.460;2023-06-22T11:37:15;29.10;1.00
36322;DHT22;23564;48.290;11.460;2023-06-22T11:39:41;29.10;1.00
36322;DHT22;23564;48.290;11.460;2023-06-22T11:42:07;29.30;1.00
36322;DHT22;23564;48.290;11.460;2023-06-22T11:44:33;29.30;1.00
36322;DHT22;23564;48.290;11.460;2023-06-22T11:46:59;29.40;1.00
36322;DHT22;23564;48.290;11.460;2023-06-22T11:49:29;29.40;1.00
36322;DHT22;23564;48.290;11.460;2023-06-22T11:51:55;29.50;1.00
36322;DHT22;23564;48.290;11.460;2023-06-22T11:54:20;29.50;1.00
36322;DHT22;23564;48.290;11.460;2023-06-22T11:56:46;29.50;1.00
36322;DHT22;23564;48.290;11.460;2023-06-22T11:59:12;29.50;1.00
36322;DHT22;23564;48.290;11.460;2023-06-22T12:01:37;29.50;1.00
36322;DHT22;23564;48.290;11.460;2023-06-22T12:04:03;29.50;1.00
36322;DHT22;23564;48.290;11.460;2023-06-22T12:06:31;29.60;1.00
36322;DHT22;23564;48.290;11.460;2023-06-22T12:08:58;29.70;99.90
36322;DHT22;23564;48.290;11.460;2023-06-22T12:11:23;29.80;1.00
36322;DHT22;23564;48.290;11.460;2023-06-22T12:13:49;29.90;1.00
36322;DHT22;23564;48.290;11.460;2023-06-22T12:16:15;29.90;1.00
36322;DHT22;23564;48.290;11.460;2023-06-22T12:18:40;30.00;99.90
36322;DHT22;23564;48.290;11.460;2023-06-22T12:21:06;30.00;99.90
36322;DHT22;23564;48.290;11.460;2023-06-22T12:23:32;30.10;1.00
36322;DHT22;23564;48.290;11.460;2023-06-22T12:25:57;30.20;1.00
36322;DHT22;23564;48.290;11.460;2023-06-22T12:28:24;30.40;99.90
36322;DHT22;23564;48.290;11.460;2023-06-22T12:30:49;30.50;99.90
36322;DHT22;23564;48.290;11.460;2023-06-22T12:33:15;30.60;99.90
36322;DHT22;23564;48.290;11.460;2023-06-22T12:35:41;30.80;99.90
36322;DHT22;23564;48.290;11.460;2023-06-22T12:38:06;30.90;99.90
36322;DHT22;23564;48.290;11.460;2023-06-22T12:40:33;30.80;99.90
36322;DHT22;23564;48.290;11.460;2023-06-22T12:42:59;30.90;99.90
36322;DHT22;23564;48.290;11.460;2023-06-22T12:45:24;31.00;99.90
36322;DHT22;23564;48.290;11.460;2023-06-22T12:47:54;30.90;99.90
36322;DHT22;23564;48.290;11.460;2023-06-22T12:50:19;30.80;99.90
36322;DHT22;23564;48.290;11.460;2023-06-22T12:52:45;30.70;99.90
36322;DHT22;23564;48.290;11.460;2023-06-22T12:55:11;30.70;99.90
36322;DHT22;23564;48.290;11.460;2023-06-22T12:57:36;30.90;99.90
36322;DHT22;23564;48.290;11.460;2023-06-22T13:00:02;31.00;99.90
36322;DHT22;23564;48.290;11.460;2023-06-22T13:02:29;31.10;99.90
36322;DHT22;23564;48.290;11.460;2023-06-22T13:04:55;31.10;99.90
36322;DHT22;23564;48.290;11.460;2023-06-22T13:07:21;31.30;99.90
36322;DHT22;23564;48.290;11.460;2023-06-22T13:09:46;31.30;99.90
36322;DHT22;23564;48.290;11.460;2023-06-22T13:12:12;31.20;99.90
36322;DHT22;23564;48.290;11.460;2023-06-22T13:14:37;31.10;99.90
36322;DHT22;23564;48.290;11.460;2023-06-22T13:17:03;31.20;99.90
36322;DHT22;23564;48.290;11.460;2023-06-22T13:19:28;31.30;99.90
36322;DHT22;23564;48.290;11.460;2023-06-22T13:21:58;31.50;99.90
36322;DHT22;23564;48.290;11.460;2023-06-22T13:24:23;31.70;99.90
36322;DHT22;23564;48.290;11.460;2023-06-22T13:26:49;31.70;99.90
36322;DHT22;23564;48.290;11.460;2023-06-22T13:29:14;31.70;99.90
36322;DHT22;23564;48.290;11.460;2023-06-22T13:31:40;31.50;99.90
36322;DHT22;23564;48.290;11.460;2023-06-22T13:34:05;31.30;99.90
36322;DHT22;23564;48.290;11.460;2023-06-22T13:36:31;31.40;99.90
36322;DHT22;23564;48.290;11.460;2023-06-22T13:38:57;31.30;99.90
36322;DHT22;23564;48.290;11.460;2023-06-22T13:41:22;31.10;99.90
36322;DHT22;23564;48.290;11.460;2023-06-22T13:43:48;31.30;99.90
36322;DHT22;23564;48.290;11.460;2023-06-22T13:46:13;31.40;99.90
36322;DHT22;23564;48.290;11.460;2023-06-22T13:48:39;31.50;99.90
36322;DHT22;23564;48.290;11.460;2023-06-22T13:51:05;31.50;99.90
36322;DHT22;23564;48.290;11.460;2023-06-22T13:53:30;31.60;99.90
36322;DHT22;23564;48.290;11.460;2023-06-22T13:55:56;31.70;99.90
36322;DHT22;23564;48.290;11.460;2023-06-22T13:58:22;31.50;99.90
36322;DHT22;23564;48.290;11.460;2023-06-22T14:00:47;31.60;99.90
36322;DHT22;23564;48.290;11.460;2023-06-22T14:03:14;31.60;99.90
36322;DHT22;23564;48.290;11.460;2023-06-22T14:05:41;31.70;99.90
36322;DHT22;23564;48.290;11.460;2023-06-22T14:08:07;31.80;99.90
36322;DHT22;23564;48.290;11.460;2023-06-22T14:10:32;31.90;99.90
36322;DHT22;23564;48.290;11.460;2023-06-22T14:12:58;31.90;99.90
36322;DHT22;23564;48.290;11.460;2023-06-22T14:15:25;32.00;99.90
36322;DHT22;23564;48.290;11.460;2023-06-22T14:17:51;32.00;99.90
36322;DHT22;23564;48.290;11.460;2023-06-22T14:20:17;32.10;99.90
36322;DHT22;23564;48.290;11.460;2023-06-22T14:22:42;32.10;99.90
36322;DHT22;23564;48.290;11.460;2023-06-22T14:25:08;32.20;99.90
36322;DHT22;23564;48.290;11.460;2023-06-22T14:53:45;33.40;99.90
36322;DHT22;23564;48.290;11.460;2023-06-22T14:56:12;33.40;99.90
36322;DHT22;23564;48.290;11.460;2023-06-22T14:58:40;33.50;99.90
36322;DHT22;23564;48.290;11.460;2023-06-22T15:01:09;33.40;99.90
36322;DHT22;23564;48.290;11.460;2023-06-22T15:03:35;33.40;99.90
36322;DHT22;23564;48.290;11.460;2023-06-22T15:06:02;33.40;99.90
36322;DHT22;23564;48.290;11.460;2023-06-22T15:08:28;33.50;99.90
36322;DHT22;23564;48.290;11.460;2023-06-22T15:10:54;33.60;99.90
36322;DHT22;23564;48.290;11.460;2023-06-22T15:13:21;33.80;99.90
36322;DHT22;23564;48.290;11.460;2023-06-22T15:15:47;33.80;99.90
36322;DHT22;23564;48.290;11.460;2023-06-22T15:18:14;33.90;99.90
36322;DHT22;23564;48.290;11.460;2023-06-22T15:20:40;33.80;99.90
36322;DHT22;23564;48.290;11.460;2023-06-22T15:23:07;33.70;99.90
36322;DHT22;23564;48.290;11.460;2023-06-22T15:36:11;33.60;99.90
36322;DHT22;23564;48.290;11.460;2023-06-22T15:38:36;33.80;99.90
36322;DHT22;23564;48.290;11.460;2023-06-22T15:41:02;33.70;99.90
36322;DHT22;23564;48.290;11.460;2023-06-22T15:43:28;33.40;99.90
36322;DHT22;23564;48.290;11.460;2023-06-22T15:45:53;33.40;99.90
36322;DHT22;23564;48.290;11.460;2023-06-22T15:48:20;33.60;99.90
36322;DHT22;23564;48.290;11.460;2023-06-22T15:50:46;33.80;99.90
36322;DHT22;23564;48.290;11.460;2023-06-22T15:53:11;34.10;99.90
36322;DHT22;23564;48.290;11.460;2023-06-22T15:55:37;34.20;99.90